Glenwood City, Wisconsin
Current Conditions -  °F | °C
As of 1:55 AM on Sunday 26 Oct 2014 (Local Time) from KLUM Reporting Station
Clear Clear  
Wind Chill: 43°   Ceiling: Unl
Heat Index: 43°   Visibility: 10mi
Dew Point: 29°   Wind: 3mph
Humidity: 58%   Direction: 240°WSW
Pressure: 30.03"   Gusts: NA
Location:  45.06°N, 92.17°W
Report Text: KLUM 260655Z AUTO 24003KT 10SM CLR 06/M01 A3003 RMK AO2 T00621015
Loading
Personal Weather Stations






























Interactive Weather Map
Tropical Storm Tracking
New forecast layout! Learn more

10-Day Weather Forecast

Advertisements
Track Severe Weather on mobile